createdAt,value
2022-12-13T00:01:32.220Z,28.00
2022-12-13T00:04:01.541Z,27.30
2022-12-13T00:06:31.035Z,26.80
2022-12-13T00:08:58.739Z,26.70
2022-12-13T00:11:26.559Z,26.70
2022-12-13T00:13:54.041Z,27.00
2022-12-13T00:16:23.498Z,27.10
2022-12-13T00:18:58.773Z,26.10
2022-12-13T00:21:30.935Z,25.30
2022-12-13T00:23:59.370Z,25.80
2022-12-13T00:26:29.885Z,26.30
2022-12-13T00:28:59.204Z,25.70
2022-12-13T00:31:56.655Z,25.40
2022-12-13T00:34:13.495Z,25.80
2022-12-13T00:36:40.635Z,26.80
2022-12-13T00:39:07.580Z,27.10
2022-12-13T00:41:36.479Z,26.40
2022-12-13T00:44:05.115Z,25.00
2022-12-13T00:46:32.727Z,25.90
2022-12-13T00:49:01.641Z,26.40
2022-12-13T00:51:30.413Z,27.50
2022-12-13T00:53:58.814Z,27.60
2022-12-13T00:56:28.733Z,27.70
2022-12-13T00:58:56.677Z,26.80
2022-12-13T01:01:26.720Z,26.70
2022-12-13T01:03:55.654Z,26.20
2022-12-13T01:06:27.825Z,26.70
2022-12-13T01:08:54.843Z,26.20
2022-12-13T01:11:21.837Z,25.50
2022-12-13T01:13:48.818Z,25.00
2022-12-13T01:16:15.822Z,24.60
2022-12-13T01:18:43.100Z,24.50
2022-12-13T01:21:16.246Z,24.90
2022-12-13T01:23:47.711Z,25.20
2022-12-13T01:26:18.927Z,24.70
2022-12-13T01:28:46.247Z,24.80
2022-12-13T01:31:16.249Z,25.50
2022-12-13T01:33:43.845Z,25.70
2022-12-13T01:36:16.565Z,26.10
2022-12-13T01:38:43.710Z,25.60
2022-12-13T01:41:18.351Z,25.10
2022-12-13T01:43:48.068Z,24.90
2022-12-13T01:46:16.942Z,25.10
2022-12-13T01:48:53.714Z,25.80
2022-12-13T01:51:26.338Z,25.60
2022-12-13T01:53:54.210Z,26.10
2022-12-13T01:56:29.934Z,25.30
2022-12-13T01:58:59.840Z,26.40
2022-12-13T02:01:27.873Z,26.90
2022-12-13T02:03:55.138Z,27.30
2022-12-13T02:06:37.851Z,27.50
2022-12-13T02:09:07.049Z,27.90
2022-12-13T02:11:36.303Z,28.40
2022-12-13T02:14:03.719Z,29.00
2022-12-13T02:16:30.768Z,29.10
2022-12-13T02:19:31.173Z,29.30
2022-12-13T02:22:16.867Z,29.70
2022-12-13T02:25:04.191Z,29.90
2022-12-13T02:28:30.536Z,30.10
2022-12-13T02:31:08.348Z,29.90
2022-12-13T02:33:58.564Z,29.80
2022-12-13T02:36:36.291Z,29.80
2022-12-13T02:39:03.784Z,29.80
2022-12-13T02:41:53.631Z,29.80
2022-12-13T02:44:37.886Z,29.90
2022-12-13T02:47:12.767Z,30.00
2022-12-13T02:49:53.334Z,29.90
2022-12-13T02:52:23.470Z,29.80
2022-12-13T02:54:50.434Z,28.80
2022-12-13T02:57:35.183Z,28.50
2022-12-13T03:00:17.064Z,27.80
2022-12-13T03:03:22.222Z,28.60
2022-12-13T03:06:12.625Z,29.30
2022-12-13T03:09:17.125Z,29.70
2022-12-13T03:12:23.690Z,29.70
2022-12-13T03:15:07.930Z,30.10
2022-12-13T03:17:43.043Z,29.30
2022-12-13T03:20:12.474Z,29.30
2022-12-13T03:22:49.982Z,29.50
2022-12-13T03:25:30.743Z,28.00
2022-12-13T03:28:01.243Z,27.90
2022-12-13T03:30:30.336Z,28.10
2022-12-13T03:32:57.292Z,28.50
2022-12-13T03:35:25.223Z,28.70
2022-12-13T03:38:02.445Z,28.50
2022-12-13T03:40:30.332Z,28.20
2022-12-13T03:42:57.381Z,27.70
2022-12-13T03:45:24.765Z,27.70
2022-12-13T03:47:51.785Z,27.90
2022-12-13T03:50:27.136Z,28.00
2022-12-13T03:53:01.330Z,27.80
2022-12-13T03:55:28.989Z,27.40
2022-12-13T03:57:56.241Z,28.40
2022-12-13T04:00:23.499Z,28.30
2022-12-13T04:02:50.539Z,27.60
2022-12-13T04:05:18.327Z,28.20
2022-12-13T04:07:48.124Z,27.90
2022-12-13T04:10:26.210Z,27.90
2022-12-13T04:13:13.335Z,28.10
2022-12-13T04:15:49.015Z,28.50
2022-12-13T04:18:20.070Z,28.70
2022-12-13T04:20:47.773Z,28.60
2022-12-13T04:23:15.141Z,29.10
2022-12-13T04:25:42.933Z,29.50
2022-12-13T04:28:11.278Z,29.40
2022-12-13T04:30:38.336Z,29.60
2022-12-13T04:33:05.329Z,29.50
2022-12-13T04:35:32.200Z,29.60
2022-12-13T04:37:59.139Z,29.00
2022-12-13T04:40:26.567Z,28.40
2022-12-13T04:42:54.697Z,28.30
2022-12-13T04:45:23.176Z,28.90
2022-12-13T04:47:50.592Z,29.10
2022-12-13T04:50:17.786Z,28.90
2022-12-13T04:52:45.008Z,28.90
2022-12-13T04:55:12.284Z,28.90
2022-12-13T04:57:39.927Z,28.90
2022-12-13T05:00:09.948Z,28.60
2022-12-13T05:02:37.223Z,28.90
2022-12-13T05:05:04.304Z,28.60
2022-12-13T05:07:31.316Z,28.40
2022-12-13T05:09:58.296Z,28.50
2022-12-13T05:12:25.310Z,29.20
2022-12-13T05:14:53.181Z,29.60
2022-12-13T05:17:21.001Z,29.90
2022-12-13T05:19:47.957Z,29.80
2022-12-13T05:22:20.913Z,29.80
2022-12-13T05:24:48.663Z,29.60
2022-12-13T05:27:24.881Z,29.60
2022-12-13T05:30:03.758Z,29.60
2022-12-13T05:32:44.025Z,29.40
2022-12-13T05:35:16.336Z,29.40
2022-12-13T05:37:54.385Z,29.60
2022-12-13T05:40:23.872Z,29.50
2022-12-13T05:42:51.347Z,29.30
2022-12-13T05:45:19.421Z,29.40
2022-12-13T05:47:46.858Z,29.70
2022-12-13T05:50:15.354Z,29.90
2022-12-13T05:52:45.847Z,30.10
2022-12-13T05:55:12.827Z,30.10
2022-12-13T05:57:39.709Z,30.10
2022-12-13T06:00:30.425Z,30.00
2022-12-13T06:02:57.249Z,30.00
2022-12-13T06:05:27.994Z,29.10
2022-12-13T06:07:57.604Z,28.80
2022-12-13T06:10:34.996Z,28.40
2022-12-13T06:13:21.057Z,28.90
2022-12-13T06:15:51.240Z,28.90
2022-12-13T06:18:18.189Z,28.90
2022-12-13T06:20:46.630Z,28.90
2022-12-13T06:23:13.736Z,29.30
2022-12-13T06:25:40.953Z,29.50
2022-12-13T06:28:07.844Z,29.60
2022-12-13T06:30:34.878Z,29.70
2022-12-13T06:33:01.856Z,29.70
2022-12-13T06:35:30.225Z,29.70
2022-12-13T06:38:01.516Z,29.80
2022-12-13T06:40:30.485Z,30.00
2022-12-13T06:42:57.666Z,30.00
2022-12-13T06:45:25.852Z,30.00
2022-12-13T06:47:52.963Z,30.10
2022-12-13T06:50:19.911Z,30.10
2022-12-13T06:52:47.490Z,30.30
2022-12-13T06:55:14.918Z,30.50
2022-12-13T06:57:50.795Z,30.50
2022-12-13T07:00:21.808Z,30.40
2022-12-13T07:02:55.007Z,30.40
2022-12-13T07:05:22.623Z,30.40
2022-12-13T07:07:50.037Z,30.30
2022-12-13T07:10:22.462Z,30.40
2022-12-13T07:12:50.600Z,30.50
2022-12-13T07:15:18.085Z,30.80
2022-12-13T07:17:44.979Z,30.90
2022-12-13T07:20:13.913Z,30.70
2022-12-13T07:22:47.190Z,30.10
2022-12-13T07:25:27.555Z,29.60
2022-12-13T07:28:06.126Z,29.50
2022-12-13T07:30:40.718Z,28.90
2022-12-13T07:33:09.438Z,28.50
2022-12-13T07:35:37.247Z,27.80
2022-12-13T07:38:05.335Z,28.30
2022-12-13T07:40:35.249Z,28.80
2022-12-13T07:43:02.306Z,28.70
2022-12-13T07:45:30.075Z,28.90
2022-12-13T07:47:57.031Z,29.10
2022-12-13T07:50:25.640Z,29.10
2022-12-13T07:52:53.710Z,28.90
2022-12-13T07:55:23.088Z,29.20
2022-12-13T07:58:08.573Z,29.50
2022-12-13T08:00:37.215Z,29.20
2022-12-13T08:03:05.801Z,28.60
2022-12-13T08:05:38.492Z,28.60
2022-12-13T08:08:08.098Z,29.00
2022-12-13T08:10:35.867Z,29.10
2022-12-13T08:13:04.312Z,28.40
2022-12-13T08:15:31.805Z,29.00
2022-12-13T08:18:01.309Z,29.60
2022-12-13T08:20:28.283Z,29.80
2022-12-13T08:23:01.690Z,30.10
2022-12-13T08:25:29.794Z,30.20
2022-12-13T08:28:01.947Z,29.60
2022-12-13T08:30:33.445Z,29.50
2022-12-13T08:33:04.867Z,30.10
2022-12-13T08:35:34.671Z,30.00
2022-12-13T08:38:02.729Z,29.50
2022-12-13T08:40:29.964Z,28.50
2022-12-13T08:42:57.010Z,28.60
2022-12-13T08:45:25.586Z,29.20
2022-12-13T08:47:52.625Z,29.40
2022-12-13T08:50:21.277Z,29.90
2022-12-13T08:52:48.380Z,29.10
2022-12-13T08:55:15.791Z,29.30
2022-12-13T08:57:43.717Z,30.00
2022-12-13T09:00:14.251Z,29.90
2022-12-13T09:02:43.960Z,29.50
2022-12-13T09:05:12.980Z,29.10
2022-12-13T09:07:41.366Z,28.90
2022-12-13T09:10:25.813Z,29.70
2022-12-13T09:13:01.519Z,30.20
2022-12-13T09:15:34.636Z,30.50
2022-12-13T09:18:05.009Z,30.50
2022-12-13T09:20:41.112Z,29.70
2022-12-13T09:23:14.055Z,29.70
2022-12-13T09:26:05.251Z,29.80
2022-12-13T09:28:35.265Z,29.50
2022-12-13T09:31:06.602Z,29.70
2022-12-13T09:33:40.840Z,29.60
2022-12-13T09:36:12.025Z,30.20
2022-12-13T09:38:39.980Z,30.40
2022-12-13T09:41:30.725Z,30.00
2022-12-13T09:44:31.161Z,29.50
2022-12-13T09:47:01.424Z,29.50
2022-12-13T09:49:41.870Z,30.10
2022-12-13T09:52:21.950Z,30.20
2022-12-13T09:54:53.538Z,30.50
2022-12-13T09:57:32.704Z,30.20
2022-12-13T10:00:17.193Z,30.00
2022-12-13T10:02:58.898Z,29.90
2022-12-13T10:05:40.535Z,30.10
2022-12-13T10:08:20.456Z,29.40
2022-12-13T10:10:56.309Z,28.80
2022-12-13T10:13:27.520Z,29.30
2022-12-13T10:16:23.478Z,29.40
2022-12-13T10:18:51.628Z,29.20
2022-12-13T10:21:41.751Z,29.30
2022-12-13T10:24:27.786Z,28.50
2022-12-13T10:27:35.454Z,28.50
2022-12-13T10:30:28.375Z,28.80
2022-12-13T10:33:03.951Z,29.30
2022-12-13T10:35:36.413Z,29.20
2022-12-13T10:38:32.040Z,29.40
2022-12-13T10:41:01.317Z,29.80
2022-12-13T10:43:30.635Z,30.50
2022-12-13T10:45:59.691Z,30.80
2022-12-13T10:48:52.568Z,31.10
2022-12-13T10:51:22.883Z,31.20
2022-12-13T10:54:01.390Z,31.00
2022-12-13T10:56:47.037Z,31.00
2022-12-13T10:59:26.813Z,30.00
2022-12-13T11:01:56.020Z,29.40
2022-12-13T11:04:36.180Z,29.00
2022-12-13T11:07:28.126Z,28.00
2022-12-13T11:09:56.847Z,27.70
2022-12-13T11:12:33.110Z,26.70
2022-12-13T11:15:07.723Z,25.80
2022-12-13T11:17:45.750Z,24.90
2022-12-13T11:20:25.047Z,25.10
2022-12-13T11:23:12.492Z,25.60
2022-12-13T11:25:43.696Z,25.90
2022-12-13T11:28:25.930Z,26.10
2022-12-13T11:31:25.344Z,25.90
2022-12-13T11:34:09.519Z,26.00
2022-12-13T11:36:50.702Z,26.10
2022-12-13T11:39:23.649Z,25.80
2022-12-13T11:42:15.056Z,25.80
2022-12-13T11:44:54.143Z,25.90
2022-12-13T11:47:46.150Z,26.50
2022-12-13T11:50:42.487Z,26.50
2022-12-13T11:53:48.352Z,26.40
2022-12-13T11:56:38.779Z,26.20
2022-12-13T11:59:46.524Z,25.10
2022-12-13T12:02:26.963Z,24.90
2022-12-13T12:05:00.465Z,25.20
2022-12-13T12:08:05.099Z,25.50
2022-12-13T12:10:49.304Z,25.70
2022-12-13T12:13:50.925Z,25.80
2022-12-13T12:16:36.390Z,26.00
2022-12-13T12:19:03.752Z,25.60
2022-12-13T12:22:12.844Z,25.30
2022-12-13T12:24:40.680Z,25.30
2022-12-13T12:27:32.174Z,24.60
2022-12-13T12:30:23.259Z,24.60
2022-12-13T12:32:59.167Z,24.60
2022-12-13T12:35:31.840Z,24.70
2022-12-13T12:38:01.471Z,24.70
2022-12-13T12:40:52.135Z,24.70
2022-12-13T12:43:43.620Z,24.30
2022-12-13T12:46:28.382Z,24.40
2022-12-13T12:49:31.452Z,25.50
2022-12-13T12:52:13.870Z,26.20
2022-12-13T12:54:41.470Z,26.50
2022-12-13T12:57:53.417Z,26.30
2022-12-13T13:00:22.969Z,25.80
2022-12-13T13:03:15.798Z,25.60
2022-12-13T13:06:02.570Z,26.10
2022-12-13T13:08:55.088Z,26.20
2022-12-13T13:11:26.249Z,26.50
2022-12-13T13:14:05.599Z,26.90
2022-12-13T13:16:45.197Z,27.60
2022-12-13T13:19:13.518Z,27.70
2022-12-13T13:21:49.577Z,27.40
2022-12-13T13:24:18.073Z,26.80
2022-12-13T13:26:50.637Z,27.00
2022-12-13T13:29:27.110Z,26.60
2022-12-13T13:32:29.624Z,26.70
2022-12-13T13:35:29.075Z,27.20
2022-12-13T13:37:57.345Z,27.10
2022-12-13T13:40:53.147Z,27.10
2022-12-13T13:43:32.547Z,27.60
2022-12-13T13:46:10.994Z,27.10
2022-12-13T13:49:00.085Z,26.50
2022-12-13T13:51:29.852Z,26.40
2022-12-13T13:54:15.216Z,26.10
2022-12-13T13:57:12.225Z,25.80
2022-12-13T14:00:24.128Z,25.60
2022-12-13T14:03:08.944Z,25.80
2022-12-13T14:05:54.638Z,25.90
2022-12-13T14:08:43.439Z,25.90
2022-12-13T14:11:16.429Z,26.30
2022-12-13T14:14:21.293Z,25.90
2022-12-13T14:17:42.178Z,25.70
2022-12-13T14:20:26.437Z,25.00
2022-12-13T14:23:12.271Z,25.60
2022-12-13T14:25:57.427Z,25.60
2022-12-13T14:28:50.826Z,25.70
2022-12-13T14:31:28.284Z,25.90
2022-12-13T14:33:58.128Z,26.20
2022-12-13T14:36:35.719Z,25.90
2022-12-13T14:39:06.006Z,26.40
2022-12-13T14:41:34.058Z,26.60
2022-12-13T14:44:31.492Z,26.20
2022-12-13T14:47:08.108Z,26.00
2022-12-13T14:49:41.868Z,26.00
2022-12-13T14:52:32.609Z,26.20
2022-12-13T14:55:04.627Z,25.50
2022-12-13T14:57:33.621Z,25.10
2022-12-13T15:00:20.462Z,25.50
2022-12-13T15:02:53.137Z,25.60
2022-12-13T15:05:29.572Z,26.30
2022-12-13T15:07:57.375Z,26.50
2022-12-13T15:10:33.223Z,26.40
2022-12-13T15:13:00.599Z,25.90
2022-12-13T15:15:33.189Z,25.90
2022-12-13T15:18:20.295Z,26.00
2022-12-13T15:20:48.687Z,25.50
2022-12-13T15:23:21.447Z,26.00
2022-12-13T15:26:08.351Z,25.80
2022-12-13T15:28:40.213Z,25.50
2022-12-13T15:31:07.966Z,24.80
2022-12-13T15:33:40.841Z,24.80
2022-12-13T15:36:19.748Z,24.90
2022-12-13T15:38:53.584Z,24.20
2022-12-13T15:41:25.156Z,24.30
2022-12-13T15:43:56.325Z,24.50
2022-12-13T15:46:30.103Z,24.50
2022-12-13T15:49:00.000Z,23.50
2022-12-13T15:51:28.893Z,23.30
2022-12-13T15:54:05.092Z,23.50
2022-12-13T15:56:56.514Z,23.10
2022-12-13T15:59:29.865Z,23.40
2022-12-13T16:01:58.668Z,23.10
2022-12-13T16:04:28.796Z,22.00
2022-12-13T16:06:56.154Z,21.60
2022-12-13T16:09:27.530Z,20.90
2022-12-13T16:12:08.916Z,21.50
2022-12-13T16:14:48.980Z,22.20
2022-12-13T16:17:22.202Z,22.10
2022-12-13T16:19:49.351Z,22.60
2022-12-13T16:22:17.842Z,23.00
2022-12-13T16:24:44.899Z,22.00
2022-12-13T16:27:13.019Z,22.00
2022-12-13T16:29:41.614Z,22.30
2022-12-13T16:32:09.149Z,23.10
2022-12-13T16:34:40.073Z,23.40
2022-12-13T16:37:26.236Z,23.20
2022-12-13T16:39:54.197Z,22.20
2022-12-13T16:42:26.367Z,22.10
2022-12-13T16:45:11.590Z,22.40
2022-12-13T16:47:48.931Z,23.50
2022-12-13T16:50:19.172Z,23.30
2022-12-13T16:52:46.283Z,23.10
2022-12-13T16:55:13.227Z,23.70
2022-12-13T16:57:40.241Z,24.30
2022-12-13T17:00:11.096Z,24.10
2022-12-13T17:02:38.479Z,24.50
2022-12-13T17:05:06.079Z,24.90
2022-12-13T17:07:33.585Z,25.30
2022-12-13T17:10:00.739Z,25.70
2022-12-13T17:12:27.749Z,25.60
2022-12-13T17:14:54.783Z,25.20
2022-12-13T17:17:21.896Z,25.10
2022-12-13T17:19:48.840Z,25.00
2022-12-13T17:22:15.835Z,24.80
2022-12-13T17:24:42.872Z,25.10
2022-12-13T17:27:09.991Z,25.50
2022-12-13T17:29:37.013Z,25.40
2022-12-13T17:32:05.079Z,25.50
2022-12-13T17:34:32.015Z,25.80
2022-12-13T17:36:58.963Z,25.30
2022-12-13T17:39:26.028Z,25.30
2022-12-13T17:41:54.852Z,25.60
2022-12-13T17:44:23.470Z,25.60
2022-12-13T17:46:54.867Z,25.20
2022-12-13T17:49:22.715Z,24.70
2022-12-13T17:51:51.302Z,24.50
2022-12-13T17:54:19.857Z,24.60
2022-12-13T17:56:47.321Z,24.10
2022-12-13T17:59:15.418Z,23.80
2022-12-13T18:01:46.026Z,23.80
2022-12-13T18:04:13.401Z,24.30
2022-12-13T18:06:40.870Z,24.30
2022-12-13T18:09:09.238Z,24.60
2022-12-13T18:11:36.230Z,24.70
2022-12-13T18:14:08.459Z,24.40
2022-12-13T18:16:38.280Z,24.00
2022-12-13T18:19:08.510Z,24.20
2022-12-13T18:21:36.915Z,23.90
2022-12-13T18:24:05.718Z,24.00
2022-12-13T18:26:33.191Z,23.60
2022-12-13T18:29:00.612Z,24.20
2022-12-13T18:31:28.179Z,24.20
2022-12-13T18:33:55.417Z,23.40
2022-12-13T18:36:24.759Z,23.10
2022-12-13T18:38:52.021Z,23.20
2022-12-13T18:41:24.590Z,23.30
2022-12-13T18:44:00.013Z,23.90
2022-12-13T18:46:28.375Z,23.90
2022-12-13T18:48:55.641Z,23.80
2022-12-13T18:51:22.903Z,23.30
2022-12-13T18:53:51.880Z,23.70
2022-12-13T18:56:19.622Z,23.50
2022-12-13T18:58:48.480Z,22.90
2022-12-13T19:01:16.275Z,23.10
2022-12-13T19:03:46.089Z,23.70
2022-12-13T19:06:18.477Z,23.40
2022-12-13T19:08:51.648Z,23.10
2022-12-13T19:11:19.793Z,22.00
2022-12-13T19:13:48.084Z,21.30
2022-12-13T19:16:17.839Z,21.40
2022-12-13T19:18:45.490Z,21.40
2022-12-13T19:21:16.431Z,21.60
2022-12-13T19:23:43.585Z,21.30
2022-12-13T19:26:14.098Z,21.20
2022-12-13T19:28:45.795Z,21.30
2022-12-13T19:31:14.504Z,21.50
2022-12-13T19:33:42.865Z,21.80
2022-12-13T19:36:10.900Z,22.30
2022-12-13T19:38:38.559Z,22.30
2022-12-13T19:41:15.066Z,22.50
2022-12-13T19:43:46.499Z,22.30
2022-12-13T19:46:19.708Z,22.50
2022-12-13T19:48:46.969Z,23.60
2022-12-13T19:51:13.967Z,23.40
2022-12-13T19:53:41.678Z,22.30
2022-12-13T19:56:15.345Z,22.20
2022-12-13T19:58:42.245Z,22.00
2022-12-13T20:01:09.691Z,21.30
2022-12-13T20:03:43.070Z,21.20
2022-12-13T20:06:13.602Z,20.30
2022-12-13T20:08:40.800Z,20.00
2022-12-13T20:11:11.048Z,20.50
2022-12-13T20:13:38.042Z,20.70
2022-12-13T20:16:05.476Z,20.90
2022-12-13T20:18:33.480Z,20.90
2022-12-13T20:21:14.241Z,21.00
2022-12-13T20:23:49.402Z,21.00
2022-12-13T20:26:22.768Z,21.60
2022-12-13T20:28:50.978Z,22.10
2022-12-13T20:31:20.380Z,21.90
2022-12-13T20:33:48.354Z,22.00
2022-12-13T20:36:27.373Z,21.60
2022-12-13T20:38:59.855Z,21.80
2022-12-13T20:41:28.524Z,21.70
2022-12-13T20:43:57.749Z,22.00
2022-12-13T20:46:26.169Z,22.20
2022-12-13T20:48:57.789Z,21.80
2022-12-13T20:51:27.892Z,21.60
2022-12-13T20:53:55.456Z,22.10
2022-12-13T20:56:27.998Z,22.20
2022-12-13T20:58:55.696Z,22.00
2022-12-13T21:01:27.870Z,22.80
2022-12-13T21:03:58.502Z,22.60
2022-12-13T21:06:25.840Z,23.10
2022-12-13T21:08:54.914Z,23.20
2022-12-13T21:11:30.611Z,22.60
2022-12-13T21:14:20.727Z,21.30
2022-12-13T21:16:57.378Z,20.50
2022-12-13T21:19:34.396Z,20.10
2022-12-13T21:22:04.730Z,20.70
2022-12-13T21:24:31.843Z,21.40
2022-12-13T21:26:59.983Z,21.40
2022-12-13T21:29:28.309Z,21.30
2022-12-13T21:31:56.214Z,21.60
2022-12-13T21:34:23.683Z,22.00
2022-12-13T21:36:52.546Z,22.70
2022-12-13T21:39:24.914Z,21.90
2022-12-13T21:41:54.037Z,22.40
2022-12-13T21:44:21.616Z,22.20
2022-12-13T21:49:35.988Z,22.30
2022-12-13T21:52:03.006Z,22.00
2022-12-13T21:54:29.933Z,22.00
2022-12-13T21:57:15.716Z,22.10
2022-12-13T21:59:42.952Z,21.40
2022-12-13T22:02:19.161Z,20.90
2022-12-13T22:04:53.657Z,20.60
2022-12-13T22:07:25.973Z,20.50
2022-12-13T22:09:54.069Z,20.10
2022-12-13T22:12:22.550Z,19.60
2022-12-13T22:14:50.485Z,20.50
2022-12-13T22:17:19.386Z,20.80
2022-12-13T22:19:48.976Z,20.60
2022-12-13T22:22:17.558Z,21.10
2022-12-13T22:24:49.857Z,20.70
2022-12-13T22:27:23.923Z,20.50
2022-12-13T22:29:58.270Z,20.90
2022-12-13T22:32:27.128Z,21.10
2022-12-13T22:34:56.218Z,21.30
2022-12-13T22:37:24.173Z,21.10
2022-12-13T22:39:51.125Z,21.10
2022-12-13T22:42:18.058Z,21.30
2022-12-13T22:44:44.954Z,21.10
2022-12-13T22:47:11.923Z,21.40
2022-12-13T22:49:38.884Z,21.60
2022-12-13T22:52:05.991Z,21.90
2022-12-13T22:54:32.889Z,21.90
2022-12-13T22:56:59.817Z,21.70
2022-12-13T22:59:26.699Z,22.10
2022-12-13T23:02:01.416Z,22.00
2022-12-13T23:04:29.528Z,22.30
2022-12-13T23:06:56.446Z,22.80
2022-12-13T23:09:23.330Z,22.80
2022-12-13T23:12:09.045Z,23.20
2022-12-13T23:14:36.003Z,23.20
2022-12-13T23:17:03.619Z,23.90
2022-12-13T23:19:50.167Z,24.30
2022-12-13T23:22:19.863Z,24.60
2022-12-13T23:24:46.809Z,24.50
2022-12-13T23:27:13.802Z,24.90
2022-12-13T23:29:40.808Z,25.50
2022-12-13T23:32:07.727Z,25.60
2022-12-13T23:34:34.726Z,25.90
2022-12-13T23:37:01.637Z,26.00
2022-12-13T23:39:28.730Z,25.80
2022-12-13T23:41:55.574Z,25.60
2022-12-13T23:44:22.613Z,25.80
2022-12-13T23:46:49.572Z,25.70
2022-12-13T23:49:17.070Z,25.50
2022-12-13T23:51:43.961Z,25.50
2022-12-13T23:54:17.777Z,25.60
2022-12-13T23:56:44.927Z,25.40
2022-12-13T23:59:11.844Z,25.50
